Time;durP1;ratioP1;P1;durP2;ratioP2;P2;SDS_P1;SDS_P2;PMS_P1;PMS_P2;Temp;Humidity;BMP_temperature;BMP_pressure;BME280_temperature;BME280_humidity;BME280_pressure;Samples;Min_cycle;Max_cycle;Signal;HPM_P1;HPM_P2
2021/12/17 00:01:13;;;;;;;;;;;;;;;5.45;70.43;101068.75;4845295;29;19928;-84
2021/12/17 00:03:49;;;;;;;;;;;;;;;5.35;70.91;101064.97;4845311;29;19928;-86
2021/12/17 00:06:42;;;;;;;;;;;;;;;5.36;71.23;101066.69;4862297;29;20422;-86
2021/12/17 00:09:21;;;;;;;;;;;;;;;5.39;71.35;101062.63;4845495;29;20022;-84
2021/12/17 00:11:53;;;;;;;;;;;;;;;5.38;71.31;101054.94;4861460;29;19944;-85
2021/12/17 00:14:27;;;;;;;;;;;;;;;5.42;71.21;101062.72;4862295;29;20286;-84
2021/12/17 00:17:02;;;;;;;;;;;;;;;5.34;71.02;101056.50;4845217;29;19930;-84
2021/12/17 00:19:47;;;;;;;;;;;;;;;5.41;71.12;101045.81;4845001;29;20387;-84
2021/12/17 00:50:10;;;;;;;;;;;;;;;5.81;68.49;101027.16;4828979;29;19929;-86
2021/12/17 00:52:48;;;;;;;;;;;;;;;5.85;68.51;101026.53;4879040;29;20402;-85
2021/12/17 00:55:18;;;;;;;;;;;;;;;5.88;68.63;101030.03;4883368;29;20388;-85
2021/12/17 00:57:51;;;;;;;;;;;;;;;5.89;67.90;101019.13;4866939;29;19964;-85
2021/12/17 01:00:24;;;;;;;;;;;;;;;5.91;67.96;101034.38;4866615;29;19938;-85
2021/12/17 01:02:54;;;;;;;;;;;;;;;5.96;68.13;101022.75;4883191;29;20433;-85
2021/12/17 01:05:30;;;;;;;;;;;;;;;5.99;68.12;101027.94;4866517;29;20374;-85
2021/12/17 01:08:06;;;;;;;;;;;;;;;6.01;68.12;101031.38;4835669;29;19927;-85
2021/12/17 01:10:43;;;;;;;;;;;;;;;5.97;67.97;101024.47;4866198;29;19934;-85
2021/12/17 01:13:28;;;;;;;;;;;;;;;5.94;67.97;101024.34;4883102;29;19950;-85
2021/12/17 01:16:18;;;;;;;;;;;;;;;5.93;68.07;101025.16;4882745;29;20323;-85
2021/12/17 01:19:16;;;;;;;;;;;;;;;5.81;68.05;101024.63;4880417;29;20447;-85
2021/12/17 01:22:16;;;;;;;;;;;;;;;5.81;68.13;101024.63;4852241;29;19931;-85
2021/12/17 01:25:04;;;;;;;;;;;;;;;5.77;67.86;101020.25;4882750;29;19935;-85
2021/12/17 01:36:26;;;;;;;;;;;;;;;5.29;69.14;100994.69;4883069;29;19928;-85
2021/12/17 01:44:25;;;;;;;;;;;;;;;5.26;69.48;101004.69;4882654;29;19976;-85
2021/12/17 01:47:02;;;;;;;;;;;;;;;5.24;69.45;101001.22;4881571;29;19928;-85
2021/12/17 02:00:49;;;;;;;;;;;;;;;5.42;69.77;101006.19;4828384;29;19932;-85
2021/12/17 02:03:22;;;;;;;;;;;;;;;5.47;69.63;101003.84;4860337;29;20398;-85
2021/12/17 02:05:55;;;;;;;;;;;;;;;5.48;69.65;101000.50;4865574;29;19951;-85
2021/12/17 02:08:28;;;;;;;;;;;;;;;5.31;69.62;100988.00;4882022;29;20018;-85
2021/12/17 02:11:34;;;;;;;;;;;;;;;5.35;69.90;100983.97;4881809;29;19928;-85
2021/12/17 02:33:25;;;;;;;;;;;;;;;4.79;70.87;100960.47;4929249;29;19958;-85
2021/12/17 02:36:01;;;;;;;;;;;;;;;4.79;71.00;100958.81;4907114;29;19927;-86
2021/12/17 02:38:39;;;;;;;;;;;;;;;4.86;71.43;100955.75;4902285;29;19927;-86
2021/12/17 02:47:03;;;;;;;;;;;;;;;5.15;72.01;100955.28;4917812;29;20412;-86
2021/12/17 02:49:33;;;;;;;;;;;;;;;5.17;72.12;100948.63;4918784;29;19969;-86
2021/12/17 02:52:04;;;;;;;;;;;;;;;5.20;71.85;100948.75;4901991;29;19958;-85
2021/12/17 02:54:43;;;;;;;;;;;;;;;5.27;71.91;100958.34;4918930;29;19927;-86
2021/12/17 02:57:19;;;;;;;;;;;;;;;5.30;71.91;100953.38;4918775;29;19933;-85
2021/12/17 02:59:53;;;;;;;;;;;;;;;5.36;72.19;100961.22;4916907;29;20346;-85
2021/12/17 03:02:28;;;;;;;;;;;;;;;5.40;72.16;100970.66;4917435;29;19974;-85
2021/12/17 03:04:58;;;;;;;;;;;;;;;5.50;72.21;100979.50;4917429;29;19927;-86
2021/12/17 03:07:28;;;;;;;;;;;;;;;5.57;72.06;100961.22;4917115;29;19987;-86
2021/12/17 03:10:03;;;;;;;;;;;;;;;5.65;72.19;100964.06;4918456;29;19927;-86
2021/12/17 03:12:57;;;;;;;;;;;;;;;5.67;71.86;100970.91;4902041;29;19927;-86
2021/12/17 03:15:35;;;;;;;;;;;;;;;5.71;71.81;100959.25;4916727;29;20288;-86
2021/12/17 03:23:41;;;;;;;;;;;;;;;5.78;71.18;100951.06;4900695;29;20020;-86
2021/12/17 03:26:22;;;;;;;;;;;;;;;5.83;71.33;100949.59;4885597;29;19927;-86
2021/12/17 03:28:57;;;;;;;;;;;;;;;5.84;70.89;100953.81;4900494;29;20013;-86
2021/12/17 03:31:33;;;;;;;;;;;;;;;5.84;71.02;100961.44;4916266;29;19938;-86
2021/12/17 03:34:18;;;;;;;;;;;;;;;5.92;70.08;100965.16;4917768;29;20329;-86
2021/12/17 03:37:01;;;;;;;;;;;;;;;5.96;70.09;100951.81;4916931;29;20017;-86
2021/12/17 03:39:50;;;;;;;;;;;;;;;5.97;70.46;100948.47;4863577;29;19959;-85
2021/12/17 03:42:28;;;;;;;;;;;;;;;6.00;70.14;100953.63;4863330;29;20022;-85
2021/12/17 03:44:57;;;;;;;;;;;;;;;5.91;69.85;100954.16;4863451;29;19932;-86
2021/12/17 03:47:41;;;;;;;;;;;;;;;5.89;69.74;100965.03;4878683;29;19928;-86
2021/12/17 03:50:20;;;;;;;;;;;;;;;5.89;70.06;100957.44;4864585;29;19934;-86
2021/12/17 03:52:53;;;;;;;;;;;;;;;5.89;69.77;100960.84;4863053;29;20018;-86
2021/12/17 03:55:30;;;;;;;;;;;;;;;5.93;69.81;100966.88;4863278;29;20326;-86
2021/12/17 03:58:07;;;;;;;;;;;;;;;5.95;69.85;100965.28;4863059;29;20374;-85
2021/12/17 04:00:46;;;;;;;;;;;;;;;5.96;70.13;100969.53;4863140;29;20386;-86
2021/12/17 04:03:23;;;;;;;;;;;;;;;6.00;69.50;100968.84;4863110;29;19989;-85
2021/12/17 04:06:04;;;;;;;;;;;;;;;6.02;69.57;100969.78;4848957;29;19927;-85
2021/12/17 04:08:56;;;;;;;;;;;;;;;6.09;69.78;100964.13;4878116;29;19938;-85
2021/12/17 04:11:40;;;;;;;;;;;;;;;6.04;69.32;100961.44;4915652;29;19991;-84
2021/12/17 04:14:22;;;;;;;;;;;;;;;6.05;69.82;100957.22;4943239;29;19934;-83
2021/12/17 04:17:06;;;;;;;;;;;;;;;6.05;70.05;100934.41;4906800;29;19927;-85
2021/12/17 04:19:39;;;;;;;;;;;;;;;5.93;69.75;100936.47;4920352;29;19935;-85
2021/12/17 04:22:11;;;;;;;;;;;;;;;5.91;69.82;100943.16;4920407;29;19931;-86
2021/12/17 04:24:40;;;;;;;;;;;;;;;5.90;69.43;100949.03;4904749;29;19934;-86
2021/12/17 04:27:10;;;;;;;;;;;;;;;5.78;69.45;100949.38;4920084;29;19986;-86
2021/12/17 04:29:47;;;;;;;;;;;;;;;5.79;69.63;100948.59;4905006;29;19981;-86
2021/12/17 04:32:23;;;;;;;;;;;;;;;5.78;69.19;100943.47;4920012;29;19967;-85
2021/12/17 04:34:56;;;;;;;;;;;;;;;5.73;69.53;100943.31;4920041;29;19934;-85
2021/12/17 04:37:41;;;;;;;;;;;;;;;5.66;69.45;100935.41;4920324;29;19927;-86
2021/12/17 04:40:19;;;;;;;;;;;;;;;5.63;69.72;100947.94;4920322;29;19986;-86
2021/12/17 04:43:11;;;;;;;;;;;;;;;5.60;69.75;100946.16;4906986;29;19928;-86
2021/12/17 04:46:05;;;;;;;;;;;;;;;5.58;69.56;100944.34;4939589;29;19952;-85
2021/12/17 04:59:37;;;;;;;;;;;;;;;5.45;70.39;100942.16;4919675;29;20018;-86
2021/12/17 05:02:15;;;;;;;;;;;;;;;5.46;70.31;100934.63;4919636;29;19954;-86
2021/12/17 05:05:05;;;;;;;;;;;;;;;5.41;70.39;100934.44;4919621;29;20018;-86
2021/12/17 05:07:48;;;;;;;;;;;;;;;5.40;70.56;100934.34;4919598;29;19931;-86
2021/12/17 05:10:30;;;;;;;;;;;;;;;5.37;70.82;100922.44;4919585;29;19993;-86
2021/12/17 05:18:38;;;;;;;;;;;;;;;5.38;70.79;100941.91;4919746;29;20014;-86
2021/12/17 05:21:08;;;;;;;;;;;;;;;5.36;70.91;100930.84;4919171;29;19927;-86
2021/12/17 05:23:51;;;;;;;;;;;;;;;5.37;70.65;100932.56;4918797;29;20377;-86
2021/12/17 05:26:28;;;;;;;;;;;;;;;5.37;70.84;100932.56;4919247;29;19927;-86
2021/12/17 05:29:02;;;;;;;;;;;;;;;5.34;70.62;100936.66;4919348;29;19931;-86
2021/12/17 05:31:39;;;;;;;;;;;;;;;5.37;70.86;100951.97;4903929;29;19927;-86
2021/12/17 05:34:19;;;;;;;;;;;;;;;5.31;70.91;100937.41;4903642;29;20034;-86
2021/12/17 05:36:56;;;;;;;;;;;;;;;5.36;70.89;100935.91;4889316;29;19966;-86
2021/12/17 05:39:32;;;;;;;;;;;;;;;5.30;70.91;100934.81;4919192;29;19927;-86
2021/12/17 05:42:04;;;;;;;;;;;;;;;5.30;71.14;100940.72;4919879;29;20378;-86
2021/12/17 05:44:50;;;;;;;;;;;;;;;5.34;71.04;100937.53;4919395;29;19949;-86
2021/12/17 05:47:24;;;;;;;;;;;;;;;5.32;71.10;100944.19;4918835;29;19927;-86
2021/12/17 05:49:59;;;;;;;;;;;;;;;5.32;71.11;100944.19;4919921;29;19970;-85
2021/12/17 05:52:35;;;;;;;;;;;;;;;5.38;70.87;100941.03;4919046;29;20014;-86
2021/12/17 05:55:09;;;;;;;;;;;;;;;5.37;71.04;100930.03;4919131;29;20030;-86
2021/12/17 05:57:46;;;;;;;;;;;;;;;5.37;71.00;100935.09;4918890;29;20018;-86
2021/12/17 06:00:23;;;;;;;;;;;;;;;5.34;70.70;100932.47;4903617;29;19927;-85
2021/12/17 06:02:57;;;;;;;;;;;;;;;5.32;70.74;100936.59;4905754;29;19927;-84
2021/12/17 06:05:51;;;;;;;;;;;;;;;5.34;70.94;100931.59;4920154;29;19927;-84
2021/12/17 06:08:23;;;;;;;;;;;;;;;5.31;70.78;100939.06;4918921;29;19933;-84
2021/12/17 06:10:54;;;;;;;;;;;;;;;5.26;70.84;100933.81;4919070;29;20441;-84
2021/12/17 06:13:26;;;;;;;;;;;;;;;5.25;70.67;100927.03;4902040;29;19969;-84
2021/12/17 06:16:01;;;;;;;;;;;;;;;5.34;70.76;100936.66;4918952;29;20444;-84
2021/12/17 06:18:35;;;;;;;;;;;;;;;5.36;70.60;100943.50;4903525;29;20015;-84
2021/12/17 06:21:12;;;;;;;;;;;;;;;5.33;70.63;100937.44;4918660;29;19927;-84
2021/12/17 06:23:45;;;;;;;;;;;;;;;5.31;70.27;100939.94;4918328;29;19934;-84
2021/12/17 06:26:20;;;;;;;;;;;;;;;5.20;70.66;100943.69;4903114;29;19927;-84
2021/12/17 06:28:53;;;;;;;;;;;;;;;5.13;70.60;100943.38;4903038;29;19974;-85
2021/12/17 06:31:27;;;;;;;;;;;;;;;5.16;70.85;100951.94;4918269;29;19934;-84
2021/12/17 06:34:01;;;;;;;;;;;;;;;5.19;70.86;100961.31;4918682;29;19927;-84
2021/12/17 06:36:38;;;;;;;;;;;;;;;5.24;70.82;100973.38;4903412;29;19927;-84
2021/12/17 06:39:10;;;;;;;;;;;;;;;5.17;71.01;100962.94;4919567;29;19930;-84
2021/12/17 06:41:42;;;;;;;;;;;;;;;5.12;71.50;100961.88;4919017;29;19927;-85
2021/12/17 06:44:22;;;;;;;;;;;;;;;5.19;71.24;100962.19;4919133;29;19939;-84
2021/12/17 06:46:58;;;;;;;;;;;;;;;5.11;71.05;100958.47;4919929;29;19927;-85
2021/12/17 06:49:46;;;;;;;;;;;;;;;5.13;71.07;100968.69;4922084;29;20382;-85
2021/12/17 06:55:58;;;;;;;;;;;;;;;5.29;71.25;100982.03;4918338;29;19915;-84
2021/12/17 06:59:04;;;;;;;;;;;;;;;5.41;71.24;100980.00;4853036;29;19934;-84
2021/12/17 07:11:34;;;;;;;;;;;;;;;5.47;71.20;101006.38;4822950;29;20415;-85
2021/12/17 07:22:41;;;;;;;;;;;;;;;5.82;70.67;101014.59;4917379;29;19956;-84
2021/12/17 07:28:10;;;;;;;;;;;;;;;5.82;70.76;101013.72;4917506;29;19993;-84
2021/12/17 07:33:37;;;;;;;;;;;;;;;5.89;70.50;100995.44;4918476;29;19979;-84
2021/12/17 07:36:41;;;;;;;;;;;;;;;5.89;70.60;100992.91;4890017;29;19928;-84
2021/12/17 07:39:16;;;;;;;;;;;;;;;5.88;70.76;100993.69;4917016;29;19927;-84
2021/12/17 07:41:58;;;;;;;;;;;;;;;5.90;70.24;100997.19;4917280;29;19934;-84
2021/12/17 07:45:00;;;;;;;;;;;;;;;5.93;70.33;100997.28;4851349;29;19954;-84
2021/12/17 07:47:41;;;;;;;;;;;;;;;6.01;70.59;100996.78;4859788;29;19929;-82
2021/12/17 07:50:37;;;;;;;;;;;;;;;6.00;69.81;100989.97;4840392;29;20033;-83
2021/12/17 07:53:21;;;;;;;;;;;;;;;6.02;70.28;100995.13;4841840;29;19963;-84
2021/12/17 07:56:05;;;;;;;;;;;;;;;6.03;70.02;100996.84;4841957;29;19932;-84
2021/12/17 07:58:43;;;;;;;;;;;;;;;6.09;69.78;101005.53;4842057;29;19928;-85
2021/12/17 08:01:13;;;;;;;;;;;;;;;6.09;69.64;100994.56;4826661;29;19963;-85
2021/12/17 08:03:46;;;;;;;;;;;;;;;6.14;69.66;100988.00;4841322;29;20310;-84
2021/12/17 08:06:27;;;;;;;;;;;;;;;6.18;69.38;100992.34;4841160;29;19929;-85
2021/12/17 08:09:08;;;;;;;;;;;;;;;6.18;69.10;100999.97;4841517;29;19985;-85
2021/12/17 08:11:42;;;;;;;;;;;;;;;6.16;69.42;101001.56;4826253;29;20072;-85
2021/12/17 08:14:17;;;;;;;;;;;;;;;6.13;69.24;100995.50;4825819;29;20398;-85
2021/12/17 08:16:54;;;;;;;;;;;;;;;6.05;69.24;100997.75;4826273;29;19936;-85
2021/12/17 08:25:13;;;;;;;;;;;;;;;6.14;68.94;101008.25;4860220;29;19928;-85
2021/12/17 08:28:02;;;;;;;;;;;;;;;6.27;69.17;101000.31;4901781;29;20037;-86
2021/12/17 08:30:50;;;;;;;;;;;;;;;6.33;68.95;100999.69;4916380;29;19927;-87
2021/12/17 08:33:24;;;;;;;;;;;;;;;6.50;68.90;101003.69;4915157;29;19934;-85
2021/12/17 08:35:57;;;;;;;;;;;;;;;6.57;69.03;101001.44;4916555;29;19927;-85
2021/12/17 08:38:33;;;;;;;;;;;;;;;6.67;68.54;101003.47;4917591;29;20377;-85
2021/12/17 08:41:11;;;;;;;;;;;;;;;6.80;68.52;101019.16;4916382;29;19969;-85
2021/12/17 08:43:41;;;;;;;;;;;;;;;6.81;68.18;101020.88;4916613;29;20407;-85
2021/12/17 08:46:12;;;;;;;;;;;;;;;6.75;68.04;101022.41;4916336;29;20010;-85
2021/12/17 08:49:09;;;;;;;;;;;;;;;6.71;68.02;101017.16;4914036;29;19999;-85
2021/12/17 08:51:59;;;;;;;;;;;;;;;6.62;67.83;101020.22;4911327;29;19975;-85
2021/12/17 08:54:30;;;;;;;;;;;;;;;6.60;67.71;101019.28;4919183;29;19934;-85
2021/12/17 08:57:00;;;;;;;;;;;;;;;6.52;67.77;101008.03;4918694;29;19927;-86
2021/12/17 08:59:39;;;;;;;;;;;;;;;6.46;68.21;101006.91;4894341;29;19927;-85
2021/12/17 09:02:17;;;;;;;;;;;;;;;6.42;67.87;101005.94;4932107;29;19931;-85
2021/12/17 09:04:58;;;;;;;;;;;;;;;6.36;68.15;101005.72;4931742;29;19952;-84
2021/12/17 09:07:36;;;;;;;;;;;;;;;6.36;68.40;101015.84;4927229;29;20022;-85
2021/12/17 09:10:27;;;;;;;;;;;;;;;6.32;68.04;101014.03;4940412;29;19928;-86
2021/12/17 09:12:57;;;;;;;;;;;;;;;6.33;68.28;101019.97;4919310;29;20022;-86
2021/12/17 09:15:27;;;;;;;;;;;;;;;6.39;68.52;101026.13;4919487;29;20002;-85
2021/12/17 09:18:08;;;;;;;;;;;;;;;6.42;67.79;101020.28;4920853;29;19931;-85
2021/12/17 09:20:47;;;;;;;;;;;;;;;6.41;67.87;101023.63;4919562;29;19927;-86
2021/12/17 09:23:22;;;;;;;;;;;;;;;6.52;68.04;101023.25;4919368;29;19943;-86
2021/12/17 09:25:54;;;;;;;;;;;;;;;6.74;67.48;101015.59;4873385;29;19934;-85
2021/12/17 09:28:29;;;;;;;;;;;;;;;6.87;66.66;101014.34;4919245;29;19982;-85
2021/12/17 09:31:00;;;;;;;;;;;;;;;7.03;66.12;101014.06;4919825;29;19927;-86
2021/12/17 09:33:32;;;;;;;;;;;;;;;7.19;65.88;101021.44;4902859;29;19934;-86
2021/12/17 09:36:08;;;;;;;;;;;;;;;7.24;65.16;101024.13;4919403;29;19974;-86
2021/12/17 09:38:37;;;;;;;;;;;;;;;7.28;65.53;101025.94;4920135;29;20376;-85
2021/12/17 09:41:07;;;;;;;;;;;;;;;7.26;65.38;101023.34;4920312;29;19934;-86
2021/12/17 09:43:40;;;;;;;;;;;;;;;7.21;65.36;101024.00;4920188;29;19995;-84
2021/12/17 09:46:14;;;;;;;;;;;;;;;7.21;65.73;101034.16;4920287;29;19927;-84
2021/12/17 09:48:47;;;;;;;;;;;;;;;7.28;65.26;101028.47;4903303;29;19927;-86
2021/12/17 09:51:18;;;;;;;;;;;;;;;7.39;65.23;101014.44;4919555;29;19963;-85
2021/12/17 09:53:49;;;;;;;;;;;;;;;7.32;64.26;101017.59;4918538;29;19927;-85
2021/12/17 09:56:19;;;;;;;;;;;;;;;7.28;65.17;101021.72;4918856;29;19963;-85
2021/12/17 09:58:49;;;;;;;;;;;;;;;7.31;64.29;101024.38;4919441;29;19933;-85
2021/12/17 10:01:19;;;;;;;;;;;;;;;7.29;64.20;101030.22;4919537;29;19927;-85
2021/12/17 10:04:11;;;;;;;;;;;;;;;7.25;65.02;101016.53;4918662;29;19927;-85
2021/12/17 10:06:42;;;;;;;;;;;;;;;7.25;64.67;101016.53;4920041;29;20297;-85
2021/12/17 10:09:12;;;;;;;;;;;;;;;7.25;64.45;101020.75;4902614;29;20019;-85
2021/12/17 10:12:04;;;;;;;;;;;;;;;7.26;64.54;101009.78;4918272;29;19927;-85
2021/12/17 10:14:34;;;;;;;;;;;;;;;7.24;64.26;101003.81;4931566;29;19927;-88
2021/12/17 10:19:59;;;;;;;;;;;;;;;7.37;63.55;101000.84;4891422;29;19927;-89
2021/12/17 10:22:34;;;;;;;;;;;;;;;7.41;64.10;100995.06;4919268;29;19927;-89
2021/12/17 10:25:10;;;;;;;;;;;;;;;7.42;63.94;100989.16;4931565;29;19927;-88
2021/12/17 10:27:49;;;;;;;;;;;;;;;7.37;63.29;100985.59;4933593;29;19934;-89
2021/12/17 10:30:26;;;;;;;;;;;;;;;7.58;62.93;100988.00;4921101;29;19911;-88
2021/12/17 10:33:09;;;;;;;;;;;;;;;7.84;63.60;100980.38;4940715;29;19986;-88
2021/12/17 10:46:28;;;;;;;;;;;;;;;7.85;62.28;100987.19;4924146;29;19931;-89
2021/12/17 10:49:17;;;;;;;;;;;;;;;7.71;62.10;100993.50;4922469;29;20008;-89
2021/12/17 10:55:21;;;;;;;;;;;;;;;7.59;62.14;100977.88;4887730;29;19943;-88
2021/12/17 11:32:46;;;;;;;;;;;;;;;8.04;61.38;100947.91;1889026;23;20129;-86
2021/12/17 11:54:00;;;;;;;;;;;;;;;8.78;58.76;100952.63;5853951;22;20945;-88
2021/12/17 12:07:38;;;;;;;;;;;;;;;9.62;56.42;100946.25;4994104;28;20005;-88
2021/12/17 12:16:49;;;;;;;;;;;;;;;11.01;53.55;100945.78;4955663;29;19927;-87
2021/12/17 12:19:47;;;;;;;;;;;;;;;11.30;52.54;100942.88;4940631;29;19945;-88
2021/12/17 12:40:06;;;;;;;;;;;;;;;11.85;48.21;100916.47;4996677;28;20022;-88
2021/12/17 12:42:41;;;;;;;;;;;;;;;11.34;49.36;100921.66;4949787;28;20372;-86
2021/12/17 12:45:14;;;;;;;;;;;;;;;11.35;49.30;100912.28;4980693;28;19930;-86
2021/12/17 12:48:01;;;;;;;;;;;;;;;10.78;50.20;100913.03;4979309;28;20021;-86
2021/12/17 12:50:34;;;;;;;;;;;;;;;10.46;51.08;100919.22;4977451;28;19933;-86
2021/12/17 12:53:09;;;;;;;;;;;;;;;10.13;51.71;100913.44;4975911;28;20335;-85
2021/12/17 12:55:43;;;;;;;;;;;;;;;9.67;52.10;100903.06;4976423;28;19926;-85
2021/12/17 12:58:26;;;;;;;;;;;;;;;9.27;53.27;100909.75;4960913;28;19930;-86
2021/12/17 13:00:59;;;;;;;;;;;;;;;9.01;53.73;100921.00;4975562;28;19930;-86
2021/12/17 13:03:30;;;;;;;;;;;;;;;8.82;55.06;100903.53;4976254;28;19954;-86
2021/12/17 13:06:02;;;;;;;;;;;;;;;8.65;55.55;100907.31;4975756;28;19953;-85
2021/12/17 13:08:33;;;;;;;;;;;;;;;8.48;55.82;100901.78;4975840;28;19986;-85
2021/12/17 13:11:03;;;;;;;;;;;;;;;8.37;56.15;100907.38;4975500;28;19926;-86
2021/12/17 13:13:43;;;;;;;;;;;;;;;8.23;56.11;100898.47;4993240;28;19929;-87
2021/12/17 13:16:18;;;;;;;;;;;;;;;8.16;56.11;100906.75;4998619;28;19976;-86
2021/12/17 13:21:48;;;;;;;;;;;;;;;7.89;56.97;100902.56;4996716;28;19933;-86
2021/12/17 13:24:26;;;;;;;;;;;;;;;7.79;57.24;100899.72;4994758;28;19926;-86
2021/12/17 13:27:00;;;;;;;;;;;;;;;7.63;58.01;100912.78;4996985;28;19933;-86
2021/12/17 13:29:40;;;;;;;;;;;;;;;7.58;59.00;100902.50;4997409;28;20020;-86
2021/12/17 13:32:10;;;;;;;;;;;;;;;7.61;58.02;100910.19;4964157;28;19948;-86
2021/12/17 13:34:44;;;;;;;;;;;;;;;7.59;59.30;100904.19;4980975;28;20380;-86
2021/12/17 13:37:16;;;;;;;;;;;;;;;7.58;58.51;100905.03;4997648;28;19926;-86
2021/12/17 13:39:47;;;;;;;;;;;;;;;7.55;58.95;100915.09;4983854;28;19926;-86
2021/12/17 13:42:18;;;;;;;;;;;;;;;7.41;58.75;100916.34;4987829;28;19925;-87
2021/12/17 13:44:56;;;;;;;;;;;;;;;7.39;59.96;100905.25;5009835;28;19933;-86
2021/12/17 13:47:29;;;;;;;;;;;;;;;7.36;59.04;100910.25;4997805;28;19948;-86
2021/12/17 13:53:13;;;;;;;;;;;;;;;7.33;59.48;100911.00;4979417;28;19925;-89
2021/12/17 13:56:20;;;;;;;;;;;;;;;7.30;59.67;100903.28;5007732;28;20404;-89
2021/12/17 13:58:51;;;;;;;;;;;;;;;7.32;59.98;100908.41;4992381;28;19926;-89
2021/12/17 14:04:16;;;;;;;;;;;;;;;7.25;60.07;100903.94;5007878;28;20408;-90
2021/12/17 14:06:52;;;;;;;;;;;;;;;7.17;59.86;100918.09;5009820;28;19949;-89
2021/12/17 14:09:34;;;;;;;;;;;;;;;7.07;59.75;100911.84;4997463;28;19926;-90
2021/12/17 14:12:30;;;;;;;;;;;;;;;7.01;60.06;100923.44;4968878;28;19932;-90
2021/12/17 14:15:23;;;;;;;;;;;;;;;7.10;60.21;100917.00;5010924;28;19926;-90
2021/12/17 14:18:15;;;;;;;;;;;;;;;6.96;61.02;100909.78;4997274;28;19930;-90
2021/12/17 14:20:51;;;;;;;;;;;;;;;6.92;60.28;100918.06;4992142;28;20376;-89
2021/12/17 14:23:24;;;;;;;;;;;;;;;6.92;60.32;100910.47;5012407;28;19960;-90
2021/12/17 14:26:09;;;;;;;;;;;;;;;6.97;60.77;100906.41;4975062;28;19926;-89
2021/12/17 14:28:46;;;;;;;;;;;;;;;6.94;60.79;100901.22;4992406;28;19953;-90
2021/12/17 14:31:35;;;;;;;;;;;;;;;6.85;61.12;100901.78;4988611;28;19930;-88
2021/12/17 14:40:00;;;;;;;;;;;;;;;6.78;61.18;100909.13;4993754;28;19926;-90
2021/12/17 14:48:53;;;;;;;;;;;;;;;6.80;62.13;100905.84;4975418;28;19989;-89
2021/12/17 15:03:24;;;;;;;;;;;;;;;6.79;62.02;100913.41;4996027;23;19924;-90
2021/12/17 15:06:15;;;;;;;;;;;;;;;6.81;61.66;100925.34;5145064;23;19916;-89
2021/12/17 15:12:36;;;;;;;;;;;;;;;6.86;62.02;100922.97;5028817;28;19932;-89
2021/12/17 15:15:17;;;;;;;;;;;;;;;6.89;62.40;100925.56;5025106;28;19933;-89
2021/12/17 15:18:03;;;;;;;;;;;;;;;6.87;62.52;100924.66;5023064;28;19930;-89
2021/12/17 15:20:36;;;;;;;;;;;;;;;6.79;62.20;100926.94;5026654;28;19926;-90
2021/12/17 15:23:13;;;;;;;;;;;;;;;6.81;61.98;100919.41;5023093;28;19933;-89
2021/12/17 15:29:17;;;;;;;;;;;;;;;6.81;62.97;100934.63;5027975;28;20026;-90
2021/12/17 15:31:59;;;;;;;;;;;;;;;6.74;63.49;100921.72;5029936;28;19929;-90
2021/12/17 15:34:57;;;;;;;;;;;;;;;6.72;63.09;100930.94;4999443;28;19933;-90
2021/12/17 15:37:33;;;;;;;;;;;;;;;6.72;63.47;100936.03;4984843;28;19957;-89
2021/12/17 15:40:07;;;;;;;;;;;;;;;6.72;62.98;100930.94;5011349;28;19948;-91
2021/12/17 15:42:43;;;;;;;;;;;;;;;6.78;63.53;100931.97;5012403;28;19926;-90
2021/12/17 15:45:22;;;;;;;;;;;;;;;6.79;63.67;100932.00;5027744;28;19957;-90
2021/12/17 15:48:09;;;;;;;;;;;;;;;6.82;63.82;100926.19;5032491;28;19930;-90
2021/12/17 15:51:16;;;;;;;;;;;;;;;6.79;63.69;100931.19;5017879;28;19947;-90
2021/12/17 15:54:06;;;;;;;;;;;;;;;6.69;63.40;100928.28;5031725;28;20008;-91
2021/12/17 15:56:46;;;;;;;;;;;;;;;6.73;62.78;100927.63;5050205;28;19985;-89
2021/12/17 16:02:22;;;;;;;;;;;;;;;6.67;62.57;100927.38;5031874;28;19925;-90
2021/12/17 16:27:12;;;;;;;;;;;;;;;6.69;62.05;100925.75;5070826;28;20397;-88
2021/12/17 16:30:17;;;;;;;;;;;;;;;6.68;61.41;100935.88;5003640;28;19949;-90
2021/12/17 16:33:05;;;;;;;;;;;;;;;6.65;62.19;100940.81;5039433;28;19968;-89
2021/12/17 16:35:45;;;;;;;;;;;;;;;6.68;61.74;100938.41;5077236;28;19925;-89
2021/12/17 16:38:22;;;;;;;;;;;;;;;6.68;61.58;100936.72;5035421;28;19925;-88
2021/12/17 16:40:59;;;;;;;;;;;;;;;6.62;62.30;100941.56;5049429;28;19931;-89
2021/12/17 16:43:35;;;;;;;;;;;;;;;6.59;62.03;100943.16;5072839;28;19948;-89
2021/12/17 16:52:30;;;;;;;;;;;;;;;6.52;62.07;100942.09;4995425;28;19933;-90
2021/12/17 16:55:09;;;;;;;;;;;;;;;6.50;62.10;100933.53;4997653;28;19925;-89
2021/12/17 16:57:53;;;;;;;;;;;;;;;6.44;61.86;100932.47;5013576;28;20016;-90
2021/12/17 17:04:20;;;;;;;;;;;;;;;6.37;61.41;100926.31;4997633;28;19910;-90
2021/12/17 17:06:55;;;;;;;;;;;;;;;6.37;62.18;100923.78;4996892;28;19930;-89
2021/12/17 17:10:33;;;;;;;;;;;;;;;6.39;61.69;100923.81;5012747;28;19916;-89
2021/12/17 17:16:51;;;;;;;;;;;;;;;6.40;62.27;100921.38;5125569;23;19908;-89
2021/12/17 17:19:25;;;;;;;;;;;;;;;6.38;62.59;100928.03;5055721;28;19931;-89
2021/12/17 17:22:14;;;;;;;;;;;;;;;6.42;62.59;100934.09;5070760;28;19931;-89
2021/12/17 17:24:48;;;;;;;;;;;;;;;6.42;62.86;100919.75;5051311;28;19996;-89
2021/12/17 17:27:41;;;;;;;;;;;;;;;6.39;63.25;100919.63;5055366;28;19925;-89
2021/12/17 17:31:01;;;;;;;;;;;;;;;6.34;62.81;100925.31;5072654;28;19935;-89
2021/12/17 17:36:38;;;;;;;;;;;;;;;6.26;62.77;100927.59;5067775;28;19964;-90
2021/12/17 17:39:15;;;;;;;;;;;;;;;6.29;63.31;100916.69;5068181;28;19928;-89
2021/12/17 17:41:51;;;;;;;;;;;;;;;6.18;63.13;100923.91;5035218;28;19925;-90
2021/12/17 17:44:22;;;;;;;;;;;;;;;6.13;63.52;100917.81;5069117;28;19925;-91
2021/12/17 17:47:00;;;;;;;;;;;;;;;6.11;63.04;100916.91;5069793;28;19960;-90
2021/12/17 17:49:35;;;;;;;;;;;;;;;6.09;63.23;100913.44;5067856;28;19925;-91
2021/12/17 17:52:21;;;;;;;;;;;;;;;6.13;63.65;100914.41;5050392;28;19924;-89
2021/12/17 17:54:55;;;;;;;;;;;;;;;6.12;63.88;100908.47;5063500;28;19929;-89
2021/12/17 17:57:28;;;;;;;;;;;;;;;6.10;63.74;100917.69;5030019;28;19925;-89
2021/12/17 18:03:00;;;;;;;;;;;;;;;5.93;64.77;100909.47;5008418;28;19926;-89
2021/12/17 18:05:38;;;;;;;;;;;;;;;5.90;64.81;100916.09;5006939;28;19932;-89
2021/12/17 18:08:25;;;;;;;;;;;;;;;5.91;64.97;100917.81;4969672;28;19934;-89
2021/12/17 18:10:55;;;;;;;;;;;;;;;5.94;64.85;100928.06;4979240;28;19957;-89
2021/12/17 18:13:42;;;;;;;;;;;;;;;5.89;64.79;100924.50;4936016;28;19925;-89
2021/12/17 18:16:27;;;;;;;;;;;;;;;5.86;65.19;100924.38;4969719;28;19926;-90
2021/12/17 18:18:59;;;;;;;;;;;;;;;5.90;65.23;100931.31;4961093;28;19933;-89
2021/12/17 18:21:36;;;;;;;;;;;;;;;5.93;64.79;100942.41;4961549;28;19925;-89
2021/12/17 18:30:13;;;;;;;;;;;;;;;5.82;64.93;100933.50;4964985;29;19926;-89
2021/12/17 18:33:12;;;;;;;;;;;;;;;5.80;65.02;100944.41;4944090;29;19935;-88
2021/12/17 18:35:47;;;;;;;;;;;;;;;5.74;64.82;100939.94;4959931;28;19934;-88
2021/12/17 18:38:29;;;;;;;;;;;;;;;5.66;64.84;100931.22;4945065;29;19970;-89
2021/12/17 18:41:07;;;;;;;;;;;;;;;5.64;65.12;100940.38;4964224;28;19934;-90
2021/12/17 18:47:17;;;;;;;;;;;;;;;5.55;65.14;100946.75;5031489;23;19980;-89
2021/12/17 18:52:44;;;;;;;;;;;;;;;5.43;65.63;100940.41;4991383;28;19933;-89
2021/12/17 18:55:14;;;;;;;;;;;;;;;5.41;65.46;100942.03;5011910;28;19940;-89
2021/12/17 18:57:50;;;;;;;;;;;;;;;5.37;65.37;100936.78;5001279;28;19926;-90
2021/12/17 19:00:28;;;;;;;;;;;;;;;5.32;65.49;100941.66;5007510;28;19938;-90
2021/12/17 19:03:31;;;;;;;;;;;;;;;5.23;65.27;100942.97;5011575;28;19937;-91
2021/12/17 19:09:40;;;;;;;;;;;;;;;5.19;64.91;100959.66;5009864;28;19964;-90
2021/12/17 19:12:16;;;;;;;;;;;;;;;5.24;64.93;100954.78;4994239;28;19932;-90
2021/12/17 19:15:00;;;;;;;;;;;;;;;5.22;64.94;100947.16;5009165;28;20306;-90
2021/12/17 19:17:52;;;;;;;;;;;;;;;5.25;64.73;100957.41;4994232;28;19958;-89
2021/12/17 19:20:32;;;;;;;;;;;;;;;5.29;64.52;100959.25;4992449;28;19927;-90
2021/12/17 19:23:09;;;;;;;;;;;;;;;5.29;64.20;100964.31;4994982;28;19926;-90
2021/12/17 19:29:08;;;;;;;;;;;;;;;5.46;64.02;100959.06;5074390;22;19944;-92